createdAt,value
2022-09-12T00:01:25.019Z,3.70
2022-09-12T00:04:49.917Z,4.80
2022-09-12T00:07:24.769Z,4.30
2022-09-12T00:10:34.505Z,4.20
2022-09-12T00:13:06.061Z,5.00
2022-09-12T00:15:39.741Z,4.30
2022-09-12T00:18:13.033Z,5.60
2022-09-12T00:20:43.664Z,3.60
2022-09-12T00:23:14.128Z,21.00
2022-09-12T00:25:45.485Z,15.70
2022-09-12T00:28:20.152Z,10.00
2022-09-12T00:30:54.478Z,5.10
2022-09-12T00:33:24.924Z,7.00
2022-09-12T00:35:54.693Z,7.40
2022-09-12T00:38:23.434Z,5.10
2022-09-12T00:40:52.206Z,5.40
2022-09-12T00:43:38.586Z,5.70
2022-09-12T00:46:21.907Z,5.20
2022-09-12T00:48:56.837Z,5.50
2022-09-12T00:51:26.042Z,5.50
2022-09-12T00:53:57.268Z,49.10
2022-09-12T00:56:29.911Z,22.90
2022-09-12T00:59:03.943Z,16.20
2022-09-12T01:01:33.535Z,8.00
2022-09-12T01:04:04.016Z,5.60
2022-09-12T01:06:39.831Z,7.00
2022-09-12T01:09:15.582Z,8.70
2022-09-12T01:11:47.806Z,6.50
2022-09-12T01:14:20.978Z,6.00
2022-09-12T01:16:51.337Z,4.50
2022-09-12T01:20:06.643Z,4.20
2022-09-12T01:22:57.135Z,6.20
2022-09-12T01:25:38.673Z,4.60
2022-09-12T01:28:33.370Z,4.10
2022-09-12T01:31:08.987Z,5.70
2022-09-12T01:33:53.120Z,5.00
2022-09-12T01:36:35.291Z,4.50
2022-09-12T01:39:13.112Z,5.70
2022-09-12T01:41:53.409Z,6.80
2022-09-12T01:44:34.246Z,5.40
2022-09-12T01:47:10.228Z,5.30
2022-09-12T01:49:49.771Z,4.10
2022-09-12T01:52:24.359Z,7.50
2022-09-12T01:55:04.534Z,6.40
2022-09-12T01:57:44.686Z,8.60
2022-09-12T02:00:14.685Z,14.30
2022-09-12T02:02:52.410Z,9.50
2022-09-12T02:05:30.630Z,7.30
2022-09-12T02:08:06.748Z,7.80
2022-09-12T02:10:42.307Z,5.90
2022-09-12T02:13:18.307Z,3.60
2022-09-12T02:15:57.864Z,3.80
2022-09-12T02:18:29.663Z,5.40
2022-09-12T02:20:59.698Z,5.50
2022-09-12T02:23:35.653Z,5.60
2022-09-12T02:26:10.588Z,6.20
2022-09-12T02:31:21.392Z,5.90
2022-09-12T02:34:08.911Z,8.40
2022-09-12T02:36:50.059Z,12.40
2022-09-12T02:39:23.757Z,9.10
2022-09-12T02:41:55.623Z,6.50
2022-09-12T02:44:27.040Z,8.70
2022-09-12T02:47:04.452Z,8.10
2022-09-12T02:49:33.599Z,6.90
2022-09-12T02:52:03.535Z,4.70
2022-09-12T02:54:32.528Z,7.80
2022-09-12T02:57:08.181Z,14.60
2022-09-12T02:59:37.191Z,9.60
2022-09-12T03:02:18.916Z,10.80
2022-09-12T03:05:07.816Z,9.70
2022-09-12T03:07:54.450Z,14.10
2022-09-12T03:10:32.871Z,14.00
2022-09-12T03:13:17.906Z,11.10
2022-09-12T03:15:57.422Z,8.10
2022-09-12T03:18:36.870Z,8.30
2022-09-12T03:21:12.871Z,8.40
2022-09-12T03:23:50.576Z,8.10
2022-09-12T03:26:25.972Z,4.90
2022-09-12T03:28:56.560Z,6.30
2022-09-12T03:31:25.889Z,7.40
2022-09-12T03:33:55.272Z,7.50
2022-09-12T03:36:27.213Z,12.00
2022-09-12T03:38:56.471Z,6.60
2022-09-12T03:41:25.523Z,8.10
2022-09-12T03:43:56.455Z,9.70
2022-09-12T03:46:25.664Z,9.30
2022-09-12T03:48:54.397Z,24.20
2022-09-12T03:51:23.527Z,9.70
2022-09-12T03:53:52.405Z,10.60
2022-09-12T03:56:21.192Z,7.00
2022-09-12T03:58:49.934Z,4.20
2022-09-12T04:01:22.091Z,4.00
2022-09-12T04:03:52.125Z,13.10
2022-09-12T04:06:22.949Z,25.50
2022-09-12T04:08:53.575Z,7.60
2022-09-12T04:11:23.343Z,6.00
2022-09-12T04:13:52.115Z,6.70
2022-09-12T04:16:21.254Z,15.00
2022-09-12T04:18:50.132Z,17.70
2022-09-12T04:21:21.651Z,12.60
2022-09-12T04:23:51.520Z,5.50
2022-09-12T04:26:21.294Z,11.00
2022-09-12T04:28:55.388Z,12.20
2022-09-12T04:31:24.960Z,14.80
2022-09-12T04:34:05.410Z,12.80
2022-09-12T04:36:34.205Z,15.20
2022-09-12T04:39:04.244Z,19.90
2022-09-12T04:41:35.278Z,12.40
2022-09-12T04:44:06.461Z,10.30
2022-09-12T04:46:38.575Z,11.20
2022-09-12T04:49:07.832Z,7.40
2022-09-12T04:51:38.813Z,7.90
2022-09-12T04:54:09.233Z,9.40
2022-09-12T04:56:39.985Z,8.70
2022-09-12T04:59:10.527Z,9.80
2022-09-12T05:01:39.943Z,8.40
2022-09-12T05:04:10.933Z,8.40
2022-09-12T05:06:41.156Z,8.30
2022-09-12T05:09:13.597Z,27.10
2022-09-12T05:12:03.832Z,12.00
2022-09-12T05:14:34.038Z,9.90
2022-09-12T05:17:04.016Z,16.10
2022-09-12T05:19:42.815Z,9.60
2022-09-12T05:22:11.575Z,7.00
2022-09-12T05:24:46.177Z,5.10
2022-09-12T05:27:17.438Z,4.70
2022-09-12T05:29:46.111Z,5.30
2022-09-12T05:32:14.862Z,7.00
2022-09-12T05:34:43.631Z,6.20
2022-09-12T05:37:12.541Z,7.10
2022-09-12T05:39:42.007Z,4.30
2022-09-12T05:42:11.638Z,7.70
2022-09-12T05:44:41.107Z,9.90
2022-09-12T05:47:12.347Z,8.10
2022-09-12T05:49:41.154Z,4.30
2022-09-12T05:52:09.973Z,7.30
2022-09-12T05:54:38.756Z,5.30
2022-09-12T05:57:07.559Z,8.70
2022-09-12T05:59:36.966Z,6.00
2022-09-12T06:02:06.310Z,4.30
2022-09-12T06:04:35.170Z,4.10
2022-09-12T06:07:04.430Z,3.60
2022-09-12T06:09:33.641Z,3.70
2022-09-12T06:12:03.029Z,4.40
2022-09-12T06:14:32.405Z,4.60
2022-09-12T06:17:01.135Z,4.40
2022-09-12T06:19:30.050Z,5.90
2022-09-12T06:21:59.005Z,6.70
2022-09-12T06:24:27.765Z,5.20
2022-09-12T06:26:56.473Z,3.60
2022-09-12T06:29:25.499Z,4.60
2022-09-12T06:31:54.397Z,4.40
2022-09-12T06:34:23.104Z,3.80
2022-09-12T06:36:51.984Z,5.50
2022-09-12T06:39:22.146Z,3.20
2022-09-12T06:41:52.347Z,3.90
2022-09-12T06:44:31.147Z,5.60
2022-09-12T06:47:00.012Z,5.90
2022-09-12T06:49:28.836Z,4.80
2022-09-12T06:51:57.558Z,3.00
2022-09-12T06:54:26.586Z,3.40
2022-09-12T06:56:55.360Z,4.40
2022-09-12T06:59:24.375Z,4.50
2022-09-12T07:01:53.578Z,3.80
2022-09-12T07:04:22.380Z,7.30
2022-09-12T07:06:51.109Z,4.80
2022-09-12T07:09:20.035Z,6.80
2022-09-12T07:11:49.150Z,5.80
2022-09-12T07:14:19.390Z,5.10
2022-09-12T07:16:48.206Z,6.70
2022-09-12T07:19:17.317Z,3.50
2022-09-12T07:21:46.301Z,4.70
2022-09-12T07:24:15.024Z,4.50
2022-09-12T07:26:43.923Z,4.40
2022-09-12T07:29:35.985Z,5.10
2022-09-12T07:32:06.109Z,3.90
2022-09-12T07:34:35.338Z,5.10
2022-09-12T07:37:04.336Z,2.50
2022-09-12T07:39:33.065Z,7.00
2022-09-12T07:42:02.167Z,3.30
2022-09-12T07:44:32.531Z,5.00
2022-09-12T07:47:01.414Z,5.80
2022-09-12T07:49:30.375Z,6.80
2022-09-12T07:51:59.190Z,4.40
2022-09-12T07:54:27.907Z,5.60
2022-09-12T07:56:56.957Z,3.10
2022-09-12T07:59:50.951Z,3.70
2022-09-12T08:02:17.503Z,6.10
2022-09-12T08:04:47.980Z,4.90
2022-09-12T08:07:18.786Z,7.40
2022-09-12T08:09:47.697Z,5.30
2022-09-12T08:12:17.325Z,5.00
2022-09-12T08:14:45.983Z,6.20
2022-09-12T08:17:14.742Z,5.60
2022-09-12T08:19:44.407Z,4.50
2022-09-12T08:22:13.244Z,4.70
2022-09-12T08:24:41.934Z,2.80
2022-09-12T08:27:10.613Z,4.20
2022-09-12T08:29:39.509Z,3.70
2022-09-12T08:32:08.382Z,5.10
2022-09-12T08:34:37.109Z,4.80
2022-09-12T08:37:06.463Z,6.90
2022-09-12T08:39:35.316Z,10.20
2022-09-12T08:42:06.047Z,11.10
2022-09-12T08:44:54.133Z,9.50
2022-09-12T08:47:28.650Z,13.30
2022-09-12T08:50:06.203Z,5.00
2022-09-12T08:52:39.684Z,4.10
2022-09-12T08:55:23.180Z,7.30
2022-09-12T08:57:52.227Z,8.00
2022-09-12T09:00:21.516Z,9.80
2022-09-12T09:03:08.061Z,9.10
2022-09-12T09:05:49.468Z,6.50
2022-09-12T09:08:35.641Z,4.70
2022-09-12T09:11:18.833Z,7.20
2022-09-12T09:14:17.326Z,7.00
2022-09-12T09:16:50.368Z,7.70
2022-09-12T09:19:25.008Z,4.80
2022-09-12T09:24:31.122Z,3.60
2022-09-12T09:27:11.090Z,4.60
2022-09-12T09:29:55.941Z,5.00
2022-09-12T09:32:28.440Z,5.10
2022-09-12T09:34:57.109Z,6.00
2022-09-12T09:37:35.427Z,4.00
2022-09-12T09:40:12.810Z,5.60
2022-09-12T09:42:50.936Z,4.70
2022-09-12T09:45:23.649Z,4.50
2022-09-12T09:47:57.310Z,2.70
2022-09-12T09:50:26.509Z,3.40
2022-09-12T09:53:00.131Z,4.80
2022-09-12T09:55:38.141Z,3.10
2022-09-12T09:58:07.193Z,4.00
2022-09-12T10:00:38.491Z,3.10
2022-09-12T10:03:38.724Z,4.80
2022-09-12T10:06:25.946Z,3.20
2022-09-12T10:09:18.385Z,3.20
2022-09-12T10:11:48.233Z,2.70
2022-09-12T10:14:34.689Z,4.50
2022-09-12T10:17:19.873Z,10.20
2022-09-12T10:20:04.555Z,6.60
2022-09-12T10:22:39.168Z,8.80
2022-09-12T10:25:16.554Z,7.60
2022-09-12T10:27:52.289Z,8.40
2022-09-12T10:30:24.427Z,11.80
2022-09-12T10:32:54.981Z,11.30
2022-09-12T10:35:30.009Z,3.70
2022-09-12T10:38:01.882Z,5.80
2022-09-12T10:40:36.125Z,4.90
2022-09-12T10:43:18.324Z,6.80
2022-09-12T10:45:47.049Z,9.80
2022-09-12T10:48:28.317Z,3.80
2022-09-12T10:50:58.461Z,6.20
2022-09-12T10:53:34.171Z,14.00
2022-09-12T10:56:08.381Z,14.30
2022-09-12T10:59:07.271Z,10.80
2022-09-12T11:01:41.293Z,10.80
2022-09-12T11:04:27.817Z,7.80
2022-09-12T11:07:23.043Z,9.70
2022-09-12T11:09:59.701Z,10.40
2022-09-12T11:12:37.556Z,12.70
2022-09-12T11:15:26.301Z,7.10
2022-09-12T11:18:00.628Z,10.60
2022-09-12T11:21:03.551Z,9.90
2022-09-12T11:24:06.634Z,10.80
2022-09-12T11:26:50.734Z,5.30
2022-09-12T11:29:29.340Z,4.40
2022-09-12T11:32:32.774Z,4.40
2022-09-12T11:35:16.617Z,5.50
2022-09-12T11:38:10.326Z,5.70
2022-09-12T11:40:44.335Z,5.50
2022-09-12T11:43:23.619Z,5.80
2022-09-12T11:45:53.987Z,3.80
2022-09-12T11:48:38.381Z,3.90
2022-09-12T11:51:16.699Z,3.10
2022-09-12T11:53:54.499Z,3.20
2022-09-12T11:56:23.619Z,7.40
2022-09-12T11:58:58.671Z,7.50
2022-09-12T12:01:33.834Z,7.20
2022-09-12T12:04:11.470Z,4.50
2022-09-12T12:06:52.542Z,5.00
2022-09-12T12:09:21.631Z,9.80
2022-09-12T12:11:56.643Z,3.80
2022-09-12T12:14:31.574Z,10.20
2022-09-12T12:17:00.498Z,10.30
2022-09-12T12:19:35.160Z,8.00
2022-09-12T12:24:54.009Z,9.60
2022-09-12T12:27:44.494Z,3.80
2022-09-12T12:31:00.449Z,5.60
2022-09-12T12:36:35.139Z,4.40
2022-09-12T12:39:47.652Z,2.50
2022-09-12T12:43:03.023Z,3.30
2022-09-12T12:46:10.161Z,6.30
2022-09-12T12:48:57.336Z,3.50
2022-09-12T12:52:04.708Z,3.90
2022-09-12T12:54:50.839Z,3.90
2022-09-12T12:57:29.290Z,4.70
2022-09-12T13:00:03.927Z,5.20
2022-09-12T13:02:37.140Z,7.00
2022-09-12T13:05:19.889Z,6.60
2022-09-12T13:07:57.300Z,4.80
2022-09-12T13:10:28.746Z,7.10
2022-09-12T13:13:01.281Z,15.40
2022-09-12T13:15:48.796Z,10.90
2022-09-12T13:18:24.923Z,5.10
2022-09-12T13:21:03.303Z,3.40
2022-09-12T13:23:33.452Z,5.30
2022-09-12T13:26:04.615Z,17.40
2022-09-12T13:28:33.406Z,14.80
2022-09-12T13:31:12.004Z,16.70
2022-09-12T13:33:46.813Z,19.10
2022-09-12T13:36:36.999Z,7.00
2022-09-12T13:39:21.848Z,10.90
2022-09-12T13:42:07.932Z,10.20
2022-09-12T13:44:42.749Z,18.00
2022-09-12T13:47:21.391Z,14.10
2022-09-12T13:49:50.621Z,20.00
2022-09-12T13:52:23.563Z,24.70
2022-09-12T13:54:56.422Z,20.70
2022-09-12T13:57:31.779Z,19.10
2022-09-12T14:00:12.456Z,21.40
2022-09-12T14:02:41.735Z,18.80
2022-09-12T14:05:21.665Z,24.80
2022-09-12T14:07:55.858Z,15.80
2022-09-12T14:10:32.541Z,26.60
2022-09-12T14:13:08.037Z,21.60
2022-09-12T14:15:38.321Z,18.50
2022-09-12T14:18:24.207Z,20.00
2022-09-12T14:20:59.342Z,20.80
2022-09-12T14:23:31.947Z,19.70
2022-09-12T14:26:06.161Z,19.50
2022-09-12T14:28:36.969Z,36.40
2022-09-12T14:31:07.291Z,26.50
2022-09-12T14:33:48.308Z,12.40
2022-09-12T14:36:22.961Z,11.90
2022-09-12T14:41:26.763Z,15.70
2022-09-12T14:44:01.045Z,14.50
2022-09-12T14:46:33.674Z,15.20
2022-09-12T14:49:07.984Z,16.90
2022-09-12T14:51:39.946Z,12.10
2022-09-12T14:54:35.815Z,8.90
2022-09-12T14:57:06.532Z,12.30
2022-09-12T14:59:41.941Z,10.70
2022-09-12T15:02:24.759Z,6.10
2022-09-12T15:05:14.171Z,5.70
2022-09-12T15:07:49.798Z,7.10
2022-09-12T15:10:30.874Z,5.70
2022-09-12T15:13:42.622Z,5.90
2022-09-12T15:16:27.320Z,7.60
2022-09-12T15:18:56.383Z,5.90
2022-09-12T15:21:37.334Z,5.30
2022-09-12T15:24:11.647Z,5.30
2022-09-12T15:26:43.143Z,3.30
2022-09-12T15:29:15.781Z,8.10
2022-09-12T15:31:47.494Z,20.10
2022-09-12T15:34:16.301Z,10.70
2022-09-12T15:36:45.100Z,14.70
2022-09-12T15:39:14.098Z,23.20
2022-09-12T15:41:44.843Z,15.40
2022-09-12T15:44:16.390Z,28.00
2022-09-12T15:46:45.345Z,31.80
2022-09-12T15:49:14.053Z,14.80
2022-09-12T15:51:42.697Z,17.00
2022-09-12T15:54:14.243Z,15.50
2022-09-12T15:56:43.511Z,14.00
2022-09-12T15:59:16.063Z,11.20
2022-09-12T16:01:55.394Z,10.50
2022-09-12T16:04:27.516Z,9.90
2022-09-12T16:06:57.027Z,10.00
2022-09-12T16:09:25.818Z,11.90
2022-09-12T16:11:54.766Z,12.00
2022-09-12T16:14:29.852Z,12.10
2022-09-12T16:16:58.817Z,12.70
2022-09-12T16:19:27.821Z,27.30
2022-09-12T16:21:56.790Z,31.50
2022-09-12T16:24:25.705Z,28.80
2022-09-12T16:26:56.870Z,27.90
2022-09-12T16:29:30.087Z,12.10
2022-09-12T16:31:58.863Z,9.10
2022-09-12T16:34:27.724Z,12.20
2022-09-12T16:36:56.973Z,28.60
2022-09-12T16:39:25.831Z,21.70
2022-09-12T16:41:54.509Z,21.30
2022-09-12T16:44:23.341Z,29.60
2022-09-12T16:46:52.386Z,48.20
2022-09-12T16:49:21.618Z,53.70
2022-09-12T16:51:50.369Z,67.30
2022-09-12T16:54:19.054Z,59.80
2022-09-12T16:56:49.158Z,56.60
2022-09-12T16:59:20.273Z,51.50
2022-09-12T17:01:49.107Z,49.40
2022-09-12T17:04:21.667Z,47.10
2022-09-12T17:06:52.204Z,29.70
2022-09-12T17:09:21.822Z,28.90
2022-09-12T17:11:52.728Z,19.00
2022-09-12T17:14:22.642Z,16.60
2022-09-12T17:16:52.185Z,15.90
2022-09-12T17:19:23.916Z,17.60
2022-09-12T17:21:53.093Z,24.20
2022-09-12T17:24:22.917Z,34.00
2022-09-12T17:26:53.073Z,44.80
2022-09-12T17:29:23.466Z,45.80
2022-09-12T17:31:54.555Z,38.00
2022-09-12T17:34:43.790Z,73.30
2022-09-12T17:37:16.048Z,85.60
2022-09-12T17:39:50.766Z,108.30
2022-09-12T17:44:55.976Z,143.20
2022-09-12T17:47:28.335Z,118.40
2022-09-12T17:50:27.426Z,87.30
2022-09-12T17:52:53.242Z,67.00
2022-09-12T17:55:25.368Z,47.50
2022-09-12T17:57:58.635Z,33.60
2022-09-12T18:00:45.328Z,25.30
2022-09-12T18:03:17.852Z,26.20
2022-09-12T18:05:51.118Z,35.30
2022-09-12T18:08:24.009Z,45.00
2022-09-12T18:11:04.484Z,44.60
2022-09-12T18:13:40.046Z,48.60
2022-09-12T18:16:15.594Z,64.90
2022-09-12T18:18:48.188Z,44.30
2022-09-12T18:21:20.624Z,29.40
2022-09-12T18:23:52.832Z,24.60
2022-09-12T18:26:27.403Z,20.50
2022-09-12T18:29:00.109Z,16.40
2022-09-12T18:31:33.712Z,19.70
2022-09-12T18:34:06.422Z,16.50
2022-09-12T18:36:39.026Z,46.40
2022-09-12T18:39:11.717Z,73.60
2022-09-12T18:42:16.388Z,78.40
2022-09-12T18:47:58.679Z,45.60
2022-09-12T18:50:38.499Z,44.80
2022-09-12T18:53:11.623Z,48.80
2022-09-12T18:55:43.736Z,65.00
2022-09-12T18:58:16.372Z,61.10
2022-09-12T19:00:49.711Z,54.40
2022-09-12T19:03:22.175Z,59.00
2022-09-12T19:05:54.923Z,64.20
2022-09-12T19:08:27.065Z,63.60
2022-09-12T19:10:59.950Z,44.80
2022-09-12T19:13:33.023Z,67.00
2022-09-12T19:16:09.565Z,81.50
2022-09-12T19:18:42.900Z,135.30
2022-09-12T19:21:25.421Z,156.10
2022-09-12T19:24:01.373Z,146.80
2022-09-12T19:26:34.412Z,143.70
2022-09-12T19:29:07.446Z,129.70
2022-09-12T19:31:39.788Z,116.60
2022-09-12T19:34:13.645Z,109.30
2022-09-12T19:36:47.531Z,112.40
2022-09-12T19:39:20.781Z,105.10
2022-09-12T19:44:27.686Z,93.80
2022-09-12T19:46:59.624Z,107.50
2022-09-12T19:49:31.579Z,115.00
2022-09-12T19:52:03.954Z,129.70
2022-09-12T19:54:35.970Z,130.70
2022-09-12T19:57:08.119Z,127.90
2022-09-12T19:59:40.247Z,114.80
2022-09-12T20:02:12.312Z,113.50
2022-09-12T20:04:44.503Z,87.00
2022-09-12T20:07:16.642Z,76.80
2022-09-12T20:09:48.963Z,68.00
2022-09-12T20:12:20.941Z,64.80
2022-09-12T20:14:52.801Z,73.40
2022-09-12T20:17:24.760Z,67.40
2022-09-12T20:19:59.117Z,78.30
2022-09-12T20:22:31.130Z,67.50
2022-09-12T20:25:03.102Z,68.30
2022-09-12T20:27:35.000Z,75.30
2022-09-12T20:30:09.412Z,75.60
2022-09-12T20:32:41.957Z,83.50
2022-09-12T20:35:14.446Z,78.30
2022-09-12T20:37:47.029Z,68.10
2022-09-12T20:40:20.219Z,67.20
2022-09-12T20:42:52.294Z,60.20
2022-09-12T21:55:12.477Z,87.20
2022-09-12T23:02:12.451Z,33.40
